sensor_id;sensor_type;location;lat;lon;timestamp;pressure;altitude;pressure_sealevel;temperature;humidity
38026;BME280;23836;48.430;9.888;2022-07-23T18:13:05;95338.03;;;24.45;55.36
38026;BME280;23836;48.430;9.888;2022-07-23T18:17:57;95343.66;;;24.87;54.22
38026;BME280;23836;48.430;9.888;2022-07-23T18:22:48;95351.78;;;24.96;54.38
38026;BME280;23836;48.430;9.888;2022-07-23T18:27:39;95362.53;;;25.22;54.58
38026;BME280;23836;48.430;9.888;2022-07-23T18:32:31;95362.66;;;25.34;53.90
38026;BME280;23836;48.430;9.888;2022-07-23T18:37:23;95374.03;;;25.36;53.64
38026;BME280;23836;48.430;9.888;2022-07-23T18:42:16;95373.63;;;25.46;55.25
38026;BME280;23836;48.430;9.888;2022-07-23T18:47:09;95396.66;;;25.58;54.42
38026;BME280;23836;48.430;9.888;2022-07-23T18:52:01;95380.69;;;25.18;54.03
38026;BME280;23836;48.430;9.888;2022-07-23T18:56:52;95396.97;;;25.26;55.02
38026;BME280;23836;48.430;9.888;2022-07-23T19:01:43;95400.66;;;25.22;55.80
38026;BME280;23836;48.430;9.888;2022-07-23T19:06:35;95404.44;;;25.08;56.70
38026;BME280;23836;48.430;9.888;2022-07-23T19:11:28;95415.84;;;25.02;56.74
38026;BME280;23836;48.430;9.888;2022-07-23T19:16:19;95421.16;;;24.89;57.01
38026;BME280;23836;48.430;9.888;2022-07-23T19:21:10;95430.66;;;24.74;57.29
38026;BME280;23836;48.430;9.888;2022-07-23T19:26:02;95433.56;;;24.69;57.53
38026;BME280;23836;48.430;9.888;2022-07-23T19:30:55;95450.53;;;24.57;57.76
38026;BME280;23836;48.430;9.888;2022-07-23T19:35:47;95452.94;;;24.33;59.04
38026;BME280;23836;48.430;9.888;2022-07-23T19:40:38;95466.56;;;24.24;59.35
38026;BME280;23836;48.430;9.888;2022-07-23T19:45:29;95475.97;;;23.92;59.58
38026;BME280;23836;48.430;9.888;2022-07-23T19:50:20;95481.59;;;23.38;63.22
38026;BME280;23836;48.430;9.888;2022-07-23T19:55:11;95483.59;;;22.92;67.56
38026;BME280;23836;48.430;9.888;2022-07-23T20:00:05;95436.81;;;21.96;71.89
38026;BME280;23836;48.430;9.888;2022-07-23T20:04:57;95486.31;;;22.60;72.28
38026;BME280;23836;48.430;9.888;2022-07-23T20:09:47;95483.53;;;22.83;73.93
38026;BME280;23836;48.430;9.888;2022-07-23T20:14:38;95491.72;;;22.38;77.88
38026;BME280;23836;48.430;9.888;2022-07-23T20:19:28;95498.13;;;21.55;84.39
38026;BME280;23836;48.430;9.888;2022-07-23T20:24:19;95502.50;;;21.23;86.21
38026;BME280;23836;48.430;9.888;2022-07-23T20:29:12;95489.84;;;20.91;87.43
38026;BME280;23836;48.430;9.888;2022-07-23T20:34:03;95515.63;;;20.69;90.56
38026;BME280;23836;48.430;9.888;2022-07-23T20:38:55;95488.00;;;20.72;88.88
38026;BME280;23836;48.430;9.888;2022-07-23T20:43:46;95505.81;;;20.73;89.67
38026;BME280;23836;48.430;9.888;2022-07-23T20:48:37;95516.94;;;20.53;91.29
38026;BME280;23836;48.430;9.888;2022-07-23T20:53:30;95515.72;;;21.11;88.33
38026;BME280;23836;48.430;9.888;2022-07-23T20:58:21;95507.25;;;21.73;83.21
38026;BME280;23836;48.430;9.888;2022-07-23T21:03:12;95500.31;;;22.03;81.11
38026;BME280;23836;48.430;9.888;2022-07-23T21:08:04;95510.59;;;22.29;79.70
38026;BME280;23836;48.430;9.888;2022-07-23T21:12:54;95504.59;;;22.32;78.06
38026;BME280;23836;48.430;9.888;2022-07-23T21:28:31;95526.25;;;21.96;81.80
38026;BME280;23836;48.430;9.888;2022-07-23T21:34:09;95530.50;;;22.24;79.80
38026;BME280;23836;48.430;9.888;2022-07-23T21:39:23;95453.50;;;21.89;79.03
38026;BME280;23836;48.430;9.888;2022-07-23T21:44:13;95495.50;;;21.50;81.53
38026;BME280;23836;48.430;9.888;2022-07-23T21:49:04;95515.53;;;21.07;86.74
38026;BME280;23836;48.430;9.888;2022-07-23T21:53:56;95478.25;;;21.32;85.74
38026;BME280;23836;48.430;9.888;2022-07-23T21:58:46;95457.72;;;21.81;80.53
38026;BME280;23836;48.430;9.888;2022-07-23T22:03:37;95449.88;;;21.94;78.53
38026;BME280;23836;48.430;9.888;2022-07-23T22:08:27;95460.19;;;22.05;77.86
38026;BME280;23836;48.430;9.888;2022-07-23T22:13:18;95477.81;;;22.17;76.47
38026;BME280;23836;48.430;9.888;2022-07-23T22:18:08;95460.44;;;22.18;75.93
38026;BME280;23836;48.430;9.888;2022-07-23T22:22:58;95477.09;;;22.11;75.81
38026;BME280;23836;48.430;9.888;2022-07-23T22:27:50;95486.28;;;22.01;77.35
38026;BME280;23836;48.430;9.888;2022-07-23T22:32:41;95503.25;;;22.07;76.88
38026;BME280;23836;48.430;9.888;2022-07-23T22:42:20;95507.44;;;22.13;76.69
38026;BME280;23836;48.430;9.888;2022-07-23T22:47:11;95510.50;;;21.98;77.55
38026;BME280;23836;48.430;9.888;2022-07-23T23:02:44;95506.09;;;21.88;78.22
38026;BME280;23836;48.430;9.888;2022-07-23T23:07:36;95511.72;;;21.64;77.14
38026;BME280;23836;48.430;9.888;2022-07-23T23:12:28;95512.72;;;21.40;80.66
38026;BME280;23836;48.430;9.888;2022-07-23T23:17:20;95510.03;;;21.68;79.82
38026;BME280;23836;48.430;9.888;2022-07-23T23:22:12;95505.91;;;21.84;79.00
38026;BME280;23836;48.430;9.888;2022-07-23T23:27:04;95517.97;;;21.78;78.19
38026;BME280;23836;48.430;9.888;2022-07-23T23:48:46;95523.16;;;21.88;76.21
38026;BME280;23836;48.430;9.888;2022-07-23T23:53:37;95506.31;;;21.64;77.96
38026;BME280;23836;48.430;9.888;2022-07-23T23:58:27;95517.72;;;21.05;78.55
